createdAt,value
2024-02-08T00:04:41.811Z,8.28
2024-02-08T00:14:25.226Z,8.27
2024-02-08T00:24:07.267Z,8.55
2024-02-08T00:33:50.887Z,8.93
2024-02-08T00:43:33.122Z,9.04
2024-02-08T00:53:15.297Z,7.90
2024-02-08T01:03:00.452Z,8.04
2024-02-08T01:12:44.204Z,8.18
2024-02-08T01:22:26.115Z,7.62
2024-02-08T01:32:08.367Z,8.45
2024-02-08T01:41:52.050Z,8.71
2024-02-08T01:51:34.270Z,8.46
2024-02-08T02:01:16.399Z,8.47
2024-02-08T02:11:10.855Z,8.01
2024-02-08T02:20:55.703Z,7.88
2024-02-08T02:30:39.329Z,8.66
2024-02-08T02:40:24.757Z,8.30
2024-02-08T02:50:09.167Z,8.84
2024-02-08T02:59:51.519Z,7.58
2024-02-08T03:09:33.794Z,7.59
2024-02-08T03:19:17.502Z,8.10
2024-02-08T03:28:59.538Z,7.86
2024-02-08T03:38:43.740Z,7.74
2024-02-08T03:48:29.645Z,8.28
2024-02-08T03:58:15.615Z,7.50
2024-02-08T04:07:58.826Z,7.46
2024-02-08T04:18:00.383Z,8.97
2024-02-08T04:28:01.302Z,9.09
2024-02-08T04:38:01.855Z,9.27
2024-02-08T04:48:02.329Z,7.67
2024-02-08T04:57:45.117Z,7.62
2024-02-08T05:07:28.220Z,8.12
2024-02-08T05:17:12.751Z,8.14
2024-02-08T05:26:55.956Z,8.59
2024-02-08T05:36:40.801Z,8.63
2024-02-08T05:46:26.654Z,8.00
2024-02-08T05:56:10.570Z,7.16
2024-02-08T06:06:08.147Z,7.29
2024-02-08T06:15:54.963Z,7.96
2024-02-08T06:25:37.890Z,8.01
2024-02-08T06:35:27.263Z,8.14
2024-02-08T06:45:29.358Z,7.98
2024-02-08T06:55:44.030Z,8.76
2024-02-08T07:05:51.301Z,8.37
2024-02-08T07:15:51.905Z,8.31
2024-02-08T07:25:52.857Z,7.98
2024-02-08T07:35:53.292Z,8.04
2024-02-08T07:45:35.204Z,7.82
2024-02-08T07:55:22.134Z,6.51
2024-02-08T08:05:05.136Z,7.42
2024-02-08T08:14:47.138Z,8.74
2024-02-08T08:24:29.187Z,9.27
2024-02-08T08:34:29.746Z,9.26
2024-02-08T08:44:11.719Z,8.90
2024-02-08T08:54:16.185Z,8.75
2024-02-08T09:04:11.944Z,9.20
2024-02-08T09:13:56.054Z,7.67
2024-02-08T09:23:39.811Z,8.76
2024-02-08T09:33:47.243Z,7.92
2024-02-08T09:43:31.099Z,8.35
2024-02-08T09:53:21.065Z,8.50
2024-02-08T10:03:06.203Z,8.05
2024-02-08T10:13:07.265Z,8.21
2024-02-08T10:22:58.959Z,7.39
2024-02-08T10:33:07.313Z,9.41
2024-02-08T10:43:07.866Z,8.68
2024-02-08T11:13:46.965Z,9.13
2024-02-08T11:23:32.693Z,8.71
2024-02-08T11:33:15.737Z,8.73
2024-02-08T11:43:00.408Z,9.35
2024-02-08T11:52:43.911Z,9.32
2024-02-08T12:02:29.094Z,9.97
2024-02-08T12:12:11.494Z,9.51
2024-02-08T12:22:05.617Z,10.36
2024-02-08T12:31:50.289Z,10.41
2024-02-08T12:41:40.565Z,11.40
2024-02-08T12:51:26.840Z,11.22
2024-02-08T13:01:09.221Z,10.90
2024-02-08T13:10:58.209Z,10.76
2024-02-08T13:20:44.070Z,10.43
2024-02-08T13:30:31.448Z,10.86
2024-02-08T13:40:23.357Z,11.27
2024-02-08T13:50:14.991Z,11.75
2024-02-08T14:00:05.190Z,11.66
2024-02-08T14:10:08.103Z,11.56
2024-02-08T14:19:51.543Z,11.80
2024-02-08T14:29:39.702Z,11.80
2024-02-08T14:39:34.342Z,11.18
2024-02-08T14:49:27.732Z,11.40
2024-02-08T14:59:14.673Z,11.35
2024-02-08T15:09:07.452Z,11.57
2024-02-08T15:18:50.440Z,11.46
2024-02-08T15:28:37.246Z,11.77
2024-02-08T15:38:34.620Z,11.89
2024-02-08T15:48:19.709Z,12.11
2024-02-08T15:58:18.714Z,11.96
2024-02-08T16:08:07.698Z,11.88
2024-02-08T16:18:12.806Z,12.59
2024-02-08T16:27:57.948Z,13.19
2024-02-08T16:37:52.533Z,13.07
2024-02-08T16:47:43.261Z,13.70
2024-02-08T16:57:31.350Z,13.65
2024-02-08T17:07:21.829Z,14.00
2024-02-08T17:17:25.970Z,13.83
2024-02-08T17:27:28.226Z,14.02
2024-02-08T17:37:19.282Z,14.44
2024-02-08T17:47:01.790Z,14.37
2024-02-08T17:56:50.353Z,15.15
2024-02-08T18:06:33.726Z,14.58
2024-02-08T18:16:20.384Z,14.49
2024-02-08T18:26:05.886Z,14.79
2024-02-08T18:35:49.141Z,15.01
2024-02-08T18:45:38.640Z,14.94
2024-02-08T18:55:40.365Z,14.81
2024-02-08T19:05:25.335Z,14.83
2024-02-08T19:15:09.318Z,15.07
2024-02-08T19:24:55.217Z,15.15
2024-02-08T19:34:40.910Z,14.78
2024-02-08T19:44:27.276Z,15.03
2024-02-08T19:54:09.833Z,14.41
2024-02-08T20:03:57.296Z,14.88
2024-02-08T20:13:40.399Z,14.94
2024-02-08T20:23:33.811Z,14.60
2024-02-08T20:33:17.724Z,13.45
2024-02-08T20:43:01.008Z,12.59
2024-02-08T20:52:49.050Z,14.25
2024-02-08T21:02:32.931Z,14.19
2024-02-08T21:12:18.355Z,13.39
2024-02-08T21:22:01.934Z,13.60
2024-02-08T21:31:47.137Z,13.69
2024-02-08T21:41:29.161Z,13.10
2024-02-08T21:51:13.411Z,13.62
2024-02-08T22:10:56.341Z,13.24
2024-02-08T22:20:38.818Z,13.44
2024-02-08T22:30:20.700Z,13.47
2024-02-08T22:40:07.774Z,13.48
2024-02-08T22:49:49.816Z,13.27
2024-02-08T22:59:31.844Z,13.32
2024-02-08T23:09:17.357Z,13.39
2024-02-08T23:19:02.899Z,13.63
2024-02-08T23:28:48.626Z,13.81
2024-02-08T23:38:30.556Z,13.74
2024-02-08T23:48:12.742Z,13.86
2024-02-08T23:57:55.140Z,13.83
